Terminal Aerodrome Forecast
Issued by NWS

Home | Current Version | Previous Version | Graphics & Text | Print | Product List | Glossary On
Versions: 1 2 3 4 5 6 7 8 9 10 11 12 13 14
000
FTUS41 KCLE 230532
TAFFDY
TAF
KFDY 230532Z 2306/2406 11002KT P6SM SKC
      TEMPO 2309/2310 5SM BR
     FM231000 00000KT 5SM BR FEW250
      TEMPO 2310/2312 2SM BR
     FM231300 07006KT P6SM FEW250=

USA.gov is the U.S. government's official web portal to all federal, state and local government web resources and services.